sensor_id;sensor_type;location;lat;lon;timestamp;P1;durP1;ratioP1;P2;durP2;ratioP2
23159;SDS011;11748;50.844;4.396;2023-09-12T00:02:22;34.10;;;23.42;;
23159;SDS011;11748;50.844;4.396;2023-09-12T00:04:48;35.40;;;23.52;;
23159;SDS011;11748;50.844;4.396;2023-09-12T00:07:15;36.60;;;25.30;;
23159;SDS011;11748;50.844;4.396;2023-09-12T00:09:41;37.10;;;25.13;;
23159;SDS011;11748;50.844;4.396;2023-09-12T00:12:07;38.67;;;25.70;;
23159;SDS011;11748;50.844;4.396;2023-09-12T00:14:33;38.78;;;25.00;;
23159;SDS011;11748;50.844;4.396;2023-09-12T00:16:58;38.17;;;25.50;;
23159;SDS011;11748;50.844;4.396;2023-09-12T00:19:25;40.42;;;26.80;;
23159;SDS011;11748;50.844;4.396;2023-09-12T00:21:51;37.03;;;25.42;;
23159;SDS011;11748;50.844;4.396;2023-09-12T00:24:18;39.67;;;27.33;;
23159;SDS011;11748;50.844;4.396;2023-09-12T00:26:44;38.00;;;26.40;;
23159;SDS011;11748;50.844;4.396;2023-09-12T00:29:09;44.88;;;28.02;;
23159;SDS011;11748;50.844;4.396;2023-09-12T00:31:35;39.28;;;25.05;;
23159;SDS011;11748;50.844;4.396;2023-09-12T00:34:01;36.08;;;24.63;;
23159;SDS011;11748;50.844;4.396;2023-09-12T00:36:26;38.42;;;25.13;;
23159;SDS011;11748;50.844;4.396;2023-09-12T00:38:52;34.97;;;24.05;;
23159;SDS011;11748;50.844;4.396;2023-09-12T00:41:18;39.83;;;25.92;;
23159;SDS011;11748;50.844;4.396;2023-09-12T00:43:43;37.58;;;24.55;;
23159;SDS011;11748;50.844;4.396;2023-09-12T00:46:09;38.00;;;25.15;;
23159;SDS011;11748;50.844;4.396;2023-09-12T00:48:35;29.92;;;22.05;;
23159;SDS011;11748;50.844;4.396;2023-09-12T00:51:03;30.98;;;21.13;;
23159;SDS011;11748;50.844;4.396;2023-09-12T00:53:29;29.88;;;19.85;;
23159;SDS011;11748;50.844;4.396;2023-09-12T00:55:56;31.58;;;20.60;;
23159;SDS011;11748;50.844;4.396;2023-09-12T00:58:24;27.60;;;19.05;;
23159;SDS011;11748;50.844;4.396;2023-09-12T01:00:50;29.92;;;18.83;;
23159;SDS011;11748;50.844;4.396;2023-09-12T01:03:16;24.95;;;18.15;;
23159;SDS011;11748;50.844;4.396;2023-09-12T01:05:42;28.48;;;18.27;;
23159;SDS011;11748;50.844;4.396;2023-09-12T01:08:09;27.05;;;18.30;;
23159;SDS011;11748;50.844;4.396;2023-09-12T01:10:35;26.65;;;17.60;;
23159;SDS011;11748;50.844;4.396;2023-09-12T01:13:01;25.83;;;17.73;;
23159;SDS011;11748;50.844;4.396;2023-09-12T01:15:28;23.35;;;15.70;;
23159;SDS011;11748;50.844;4.396;2023-09-12T01:17:55;25.90;;;16.98;;
23159;SDS011;11748;50.844;4.396;2023-09-12T01:20:26;24.15;;;16.52;;
23159;SDS011;11748;50.844;4.396;2023-09-12T01:28:26;23.48;;;16.27;;
23159;SDS011;11748;50.844;4.396;2023-09-12T01:31:00;21.40;;;16.20;;
23159;SDS011;11748;50.844;4.396;2023-09-12T01:33:28;23.33;;;16.42;;
23159;SDS011;11748;50.844;4.396;2023-09-12T01:35:54;25.38;;;17.77;;
23159;SDS011;11748;50.844;4.396;2023-09-12T01:38:21;30.55;;;18.90;;
23159;SDS011;11748;50.844;4.396;2023-09-12T01:40:48;27.80;;;19.35;;
23159;SDS011;11748;50.844;4.396;2023-09-12T01:43:15;27.15;;;18.92;;
23159;SDS011;11748;50.844;4.396;2023-09-12T01:45:48;27.45;;;19.95;;
23159;SDS011;11748;50.844;4.396;2023-09-12T01:48:19;30.10;;;20.20;;
23159;SDS011;11748;50.844;4.396;2023-09-12T01:50:47;31.15;;;20.42;;
23159;SDS011;11748;50.844;4.396;2023-09-12T01:53:14;30.25;;;18.92;;
23159;SDS011;11748;50.844;4.396;2023-09-12T01:55:43;32.95;;;21.27;;
23159;SDS011;11748;50.844;4.396;2023-09-12T01:58:11;29.17;;;19.08;;
23159;SDS011;11748;50.844;4.396;2023-09-12T02:00:38;28.20;;;19.20;;
23159;SDS011;11748;50.844;4.396;2023-09-12T02:03:05;28.38;;;17.83;;
23159;SDS011;11748;50.844;4.396;2023-09-12T02:05:30;22.52;;;16.80;;
23159;SDS011;11748;50.844;4.396;2023-09-12T02:07:58;24.65;;;16.08;;
23159;SDS011;11748;50.844;4.396;2023-09-12T02:10:26;23.65;;;16.58;;
23159;SDS011;11748;50.844;4.396;2023-09-12T02:12:52;29.60;;;19.08;;
23159;SDS011;11748;50.844;4.396;2023-09-12T02:15:18;25.02;;;17.20;;
23159;SDS011;11748;50.844;4.396;2023-09-12T02:17:44;28.55;;;19.45;;
23159;SDS011;11748;50.844;4.396;2023-09-12T02:20:09;31.13;;;19.88;;
23159;SDS011;11748;50.844;4.396;2023-09-12T02:22:36;31.52;;;21.48;;
23159;SDS011;11748;50.844;4.396;2023-09-12T02:25:05;33.15;;;23.85;;
23159;SDS011;11748;50.844;4.396;2023-09-12T02:27:33;37.38;;;25.55;;
23159;SDS011;11748;50.844;4.396;2023-09-12T02:29:59;35.05;;;27.17;;
23159;SDS011;11748;50.844;4.396;2023-09-12T02:32:24;38.65;;;25.95;;
23159;SDS011;11748;50.844;4.396;2023-09-12T02:34:50;37.88;;;26.42;;
23159;SDS011;11748;50.844;4.396;2023-09-12T02:37:18;42.60;;;28.10;;
23159;SDS011;11748;50.844;4.396;2023-09-12T02:39:44;41.33;;;27.35;;
23159;SDS011;11748;50.844;4.396;2023-09-12T02:42:09;36.17;;;26.80;;
23159;SDS011;11748;50.844;4.396;2023-09-12T02:44:35;37.00;;;26.17;;
23159;SDS011;11748;50.844;4.396;2023-09-12T02:47:01;38.55;;;25.58;;
23159;SDS011;11748;50.844;4.396;2023-09-12T02:49:28;39.55;;;24.92;;
23159;SDS011;11748;50.844;4.396;2023-09-12T02:51:53;41.22;;;27.67;;
23159;SDS011;11748;50.844;4.396;2023-09-12T02:54:19;44.75;;;28.83;;
23159;SDS011;11748;50.844;4.396;2023-09-12T02:56:45;43.00;;;28.23;;
23159;SDS011;11748;50.844;4.396;2023-09-12T02:59:11;40.75;;;27.95;;
23159;SDS011;11748;50.844;4.396;2023-09-12T03:01:36;47.80;;;29.55;;
23159;SDS011;11748;50.844;4.396;2023-09-12T03:04:02;45.22;;;29.80;;
23159;SDS011;11748;50.844;4.396;2023-09-12T03:06:28;46.50;;;29.73;;
23159;SDS011;11748;50.844;4.396;2023-09-12T03:08:56;48.15;;;27.60;;
23159;SDS011;11748;50.844;4.396;2023-09-12T03:11:22;41.72;;;28.30;;
23159;SDS011;11748;50.844;4.396;2023-09-12T03:13:48;40.65;;;27.40;;
23159;SDS011;11748;50.844;4.396;2023-09-12T03:16:14;46.60;;;30.67;;
23159;SDS011;11748;50.844;4.396;2023-09-12T03:18:40;44.47;;;30.23;;
23159;SDS011;11748;50.844;4.396;2023-09-12T03:21:06;46.47;;;29.90;;
23159;SDS011;11748;50.844;4.396;2023-09-12T03:23:32;49.75;;;29.75;;
23159;SDS011;11748;50.844;4.396;2023-09-12T03:26:04;46.70;;;28.80;;
23159;SDS011;11748;50.844;4.396;2023-09-12T03:28:31;39.97;;;26.67;;
23159;SDS011;11748;50.844;4.396;2023-09-12T03:33:54;43.22;;;28.23;;
23159;SDS011;11748;50.844;4.396;2023-09-12T03:36:19;44.28;;;28.45;;
23159;SDS011;11748;50.844;4.396;2023-09-12T03:38:45;41.95;;;27.52;;
23159;SDS011;11748;50.844;4.396;2023-09-12T03:41:11;42.75;;;28.27;;
23159;SDS011;11748;50.844;4.396;2023-09-12T03:43:37;43.78;;;28.27;;
23159;SDS011;11748;50.844;4.396;2023-09-12T03:46:03;44.15;;;29.20;;
23159;SDS011;11748;50.844;4.396;2023-09-12T03:48:29;46.65;;;31.05;;
23159;SDS011;11748;50.844;4.396;2023-09-12T03:50:59;44.15;;;30.42;;
23159;SDS011;11748;50.844;4.396;2023-09-12T03:53:26;46.28;;;29.98;;
23159;SDS011;11748;50.844;4.396;2023-09-12T03:55:53;47.28;;;29.60;;
23159;SDS011;11748;50.844;4.396;2023-09-12T03:58:18;48.60;;;29.75;;
23159;SDS011;11748;50.844;4.396;2023-09-12T04:00:44;44.63;;;29.38;;
23159;SDS011;11748;50.844;4.396;2023-09-12T04:03:10;49.47;;;30.98;;
23159;SDS011;11748;50.844;4.396;2023-09-12T04:05:35;52.47;;;31.42;;
23159;SDS011;11748;50.844;4.396;2023-09-12T04:08:01;45.15;;;30.20;;
23159;SDS011;11748;50.844;4.396;2023-09-12T04:10:27;45.03;;;29.83;;
23159;SDS011;11748;50.844;4.396;2023-09-12T04:12:53;48.75;;;29.98;;
23159;SDS011;11748;50.844;4.396;2023-09-12T04:15:19;43.05;;;28.27;;
23159;SDS011;11748;50.844;4.396;2023-09-12T04:17:45;42.58;;;27.02;;
23159;SDS011;11748;50.844;4.396;2023-09-12T04:20:11;41.10;;;27.48;;
23159;SDS011;11748;50.844;4.396;2023-09-12T04:22:42;41.33;;;27.00;;
23159;SDS011;11748;50.844;4.396;2023-09-12T04:25:08;42.58;;;27.45;;
23159;SDS011;11748;50.844;4.396;2023-09-12T04:27:33;40.83;;;27.38;;
23159;SDS011;11748;50.844;4.396;2023-09-12T04:29:59;43.35;;;27.17;;
23159;SDS011;11748;50.844;4.396;2023-09-12T04:32:25;41.75;;;26.00;;
23159;SDS011;11748;50.844;4.396;2023-09-12T04:34:51;39.20;;;25.40;;
23159;SDS011;11748;50.844;4.396;2023-09-12T04:37:17;41.13;;;25.58;;
23159;SDS011;11748;50.844;4.396;2023-09-12T04:39:43;41.13;;;25.50;;
23159;SDS011;11748;50.844;4.396;2023-09-12T04:42:09;36.00;;;25.02;;
23159;SDS011;11748;50.844;4.396;2023-09-12T04:44:36;40.95;;;25.05;;
23159;SDS011;11748;50.844;4.396;2023-09-12T04:47:04;42.10;;;26.30;;
23159;SDS011;11748;50.844;4.396;2023-09-12T04:49:30;42.55;;;25.60;;
23159;SDS011;11748;50.844;4.396;2023-09-12T04:51:56;41.67;;;25.73;;
23159;SDS011;11748;50.844;4.396;2023-09-12T04:54:22;38.28;;;25.02;;
23159;SDS011;11748;50.844;4.396;2023-09-12T04:56:47;40.33;;;24.88;;
23159;SDS011;11748;50.844;4.396;2023-09-12T04:59:13;39.13;;;25.77;;
23159;SDS011;11748;50.844;4.396;2023-09-12T05:01:39;41.53;;;25.88;;
23159;SDS011;11748;50.844;4.396;2023-09-12T05:04:05;38.28;;;25.35;;
23159;SDS011;11748;50.844;4.396;2023-09-12T05:06:31;41.65;;;26.33;;
23159;SDS011;11748;50.844;4.396;2023-09-12T05:08:57;42.67;;;27.30;;
23159;SDS011;11748;50.844;4.396;2023-09-12T05:11:23;41.20;;;26.48;;
23159;SDS011;11748;50.844;4.396;2023-09-12T05:13:49;41.40;;;25.45;;
23159;SDS011;11748;50.844;4.396;2023-09-12T05:16:15;40.83;;;26.98;;
23159;SDS011;11748;50.844;4.396;2023-09-12T05:18:41;40.13;;;26.55;;
23159;SDS011;11748;50.844;4.396;2023-09-12T05:21:07;40.72;;;25.70;;
23159;SDS011;11748;50.844;4.396;2023-09-12T05:23:32;46.80;;;26.48;;
23159;SDS011;11748;50.844;4.396;2023-09-12T05:25:58;42.72;;;28.65;;
23159;SDS011;11748;50.844;4.396;2023-09-12T05:28:24;42.95;;;27.02;;
23159;SDS011;11748;50.844;4.396;2023-09-12T05:30:50;47.60;;;26.58;;
23159;SDS011;11748;50.844;4.396;2023-09-12T05:33:16;43.92;;;27.20;;
23159;SDS011;11748;50.844;4.396;2023-09-12T05:35:42;45.30;;;25.75;;
23159;SDS011;11748;50.844;4.396;2023-09-12T05:38:09;43.15;;;26.90;;
23159;SDS011;11748;50.844;4.396;2023-09-12T05:40:35;40.85;;;25.00;;
23159;SDS011;11748;50.844;4.396;2023-09-12T05:43:02;42.42;;;26.05;;
23159;SDS011;11748;50.844;4.396;2023-09-12T05:45:28;38.20;;;25.73;;
23159;SDS011;11748;50.844;4.396;2023-09-12T05:47:55;45.25;;;26.67;;
23159;SDS011;11748;50.844;4.396;2023-09-12T05:50:21;43.10;;;26.50;;
23159;SDS011;11748;50.844;4.396;2023-09-12T05:52:48;41.50;;;24.48;;
23159;SDS011;11748;50.844;4.396;2023-09-12T05:55:14;36.35;;;23.92;;
23159;SDS011;11748;50.844;4.396;2023-09-12T05:57:39;36.40;;;23.63;;
23159;SDS011;11748;50.844;4.396;2023-09-12T06:00:05;33.38;;;23.58;;
23159;SDS011;11748;50.844;4.396;2023-09-12T06:02:35;38.13;;;22.90;;
23159;SDS011;11748;50.844;4.396;2023-09-12T06:05:01;31.75;;;21.70;;
23159;SDS011;11748;50.844;4.396;2023-09-12T06:07:27;32.72;;;21.52;;
23159;SDS011;11748;50.844;4.396;2023-09-12T06:09:53;32.85;;;20.33;;
23159;SDS011;11748;50.844;4.396;2023-09-12T06:12:19;36.38;;;22.35;;
23159;SDS011;11748;50.844;4.396;2023-09-12T06:14:45;33.22;;;19.63;;
23159;SDS011;11748;50.844;4.396;2023-09-12T06:17:10;28.52;;;18.50;;
23159;SDS011;11748;50.844;4.396;2023-09-12T06:19:36;34.30;;;19.33;;
23159;SDS011;11748;50.844;4.396;2023-09-12T06:22:02;47.75;;;33.88;;
23159;SDS011;11748;50.844;4.396;2023-09-12T06:24:29;54.67;;;35.95;;
23159;SDS011;11748;50.844;4.396;2023-09-12T06:26:55;33.25;;;22.10;;
23159;SDS011;11748;50.844;4.396;2023-09-12T06:29:22;30.70;;;20.25;;
23159;SDS011;11748;50.844;4.396;2023-09-12T06:31:48;66.45;;;43.33;;
23159;SDS011;11748;50.844;4.396;2023-09-12T06:34:14;33.58;;;20.73;;
23159;SDS011;11748;50.844;4.396;2023-09-12T06:36:40;42.97;;;30.60;;
23159;SDS011;11748;50.844;4.396;2023-09-12T06:39:10;32.50;;;19.02;;
23159;SDS011;11748;50.844;4.396;2023-09-12T06:41:36;29.92;;;19.05;;
23159;SDS011;11748;50.844;4.396;2023-09-12T06:44:03;31.50;;;19.13;;
23159;SDS011;11748;50.844;4.396;2023-09-12T06:46:30;31.00;;;18.92;;
23159;SDS011;11748;50.844;4.396;2023-09-12T06:49:01;33.00;;;18.92;;
23159;SDS011;11748;50.844;4.396;2023-09-12T06:51:28;32.05;;;19.23;;
23159;SDS011;11748;50.844;4.396;2023-09-12T06:53:53;29.58;;;20.27;;
23159;SDS011;11748;50.844;4.396;2023-09-12T06:56:19;32.00;;;20.25;;
23159;SDS011;11748;50.844;4.396;2023-09-12T06:58:46;31.77;;;21.13;;
23159;SDS011;11748;50.844;4.396;2023-09-12T07:01:12;37.58;;;26.23;;
23159;SDS011;11748;50.844;4.396;2023-09-12T07:03:39;37.10;;;19.85;;
23159;SDS011;11748;50.844;4.396;2023-09-12T07:06:05;34.33;;;19.10;;
23159;SDS011;11748;50.844;4.396;2023-09-12T07:08:31;38.63;;;20.83;;
23159;SDS011;11748;50.844;4.396;2023-09-12T07:10:57;35.45;;;20.50;;
23159;SDS011;11748;50.844;4.396;2023-09-12T07:13:30;36.97;;;21.35;;
23159;SDS011;11748;50.844;4.396;2023-09-12T07:15:59;28.20;;;19.13;;
23159;SDS011;11748;50.844;4.396;2023-09-12T07:18:35;29.95;;;19.30;;
23159;SDS011;11748;50.844;4.396;2023-09-12T07:21:02;33.97;;;20.55;;
23159;SDS011;11748;50.844;4.396;2023-09-12T07:23:29;27.63;;;19.38;;
23159;SDS011;11748;50.844;4.396;2023-09-12T07:25:56;27.80;;;18.95;;
23159;SDS011;11748;50.844;4.396;2023-09-12T07:28:25;28.15;;;17.45;;
23159;SDS011;11748;50.844;4.396;2023-09-12T07:30:52;28.52;;;17.73;;
23159;SDS011;11748;50.844;4.396;2023-09-12T07:33:21;30.15;;;18.25;;
23159;SDS011;11748;50.844;4.396;2023-09-12T07:35:47;25.55;;;16.30;;
23159;SDS011;11748;50.844;4.396;2023-09-12T07:38:16;30.85;;;16.17;;
23159;SDS011;11748;50.844;4.396;2023-09-12T07:40:43;23.27;;;14.50;;
23159;SDS011;11748;50.844;4.396;2023-09-12T07:43:09;19.83;;;13.30;;
23159;SDS011;11748;50.844;4.396;2023-09-12T07:45:36;23.00;;;14.55;;
23159;SDS011;11748;50.844;4.396;2023-09-12T07:48:06;24.92;;;13.25;;
23159;SDS011;11748;50.844;4.396;2023-09-12T07:50:33;26.23;;;13.13;;
23159;SDS011;11748;50.844;4.396;2023-09-12T07:52:59;22.85;;;13.00;;
23159;SDS011;11748;50.844;4.396;2023-09-12T07:55:25;20.10;;;13.23;;
23159;SDS011;11748;50.844;4.396;2023-09-12T07:57:51;23.17;;;13.90;;
23159;SDS011;11748;50.844;4.396;2023-09-12T08:00:16;20.70;;;12.77;;
23159;SDS011;11748;50.844;4.396;2023-09-12T08:02:42;16.25;;;10.18;;
23159;SDS011;11748;50.844;4.396;2023-09-12T08:05:08;17.08;;;12.13;;
23159;SDS011;11748;50.844;4.396;2023-09-12T08:07:36;19.45;;;13.23;;
23159;SDS011;11748;50.844;4.396;2023-09-12T08:10:02;24.90;;;16.90;;
23159;SDS011;11748;50.844;4.396;2023-09-12T08:12:28;25.27;;;16.10;;
23159;SDS011;11748;50.844;4.396;2023-09-12T08:14:54;26.45;;;17.67;;
23159;SDS011;11748;50.844;4.396;2023-09-12T08:17:21;26.10;;;17.05;;
23159;SDS011;11748;50.844;4.396;2023-09-12T08:19:47;25.80;;;18.23;;
23159;SDS011;11748;50.844;4.396;2023-09-12T08:22:13;30.17;;;18.90;;
23159;SDS011;11748;50.844;4.396;2023-09-12T08:24:39;28.20;;;17.83;;
23159;SDS011;11748;50.844;4.396;2023-09-12T08:27:05;30.95;;;19.90;;
23159;SDS011;11748;50.844;4.396;2023-09-12T08:29:33;28.67;;;18.52;;
23159;SDS011;11748;50.844;4.396;2023-09-12T08:31:59;25.52;;;17.52;;
23159;SDS011;11748;50.844;4.396;2023-09-12T08:34:25;27.10;;;18.65;;
23159;SDS011;11748;50.844;4.396;2023-09-12T08:36:51;27.77;;;19.35;;
23159;SDS011;11748;50.844;4.396;2023-09-12T08:39:27;27.95;;;17.95;;
23159;SDS011;11748;50.844;4.396;2023-09-12T08:42:04;24.70;;;16.23;;
23159;SDS011;11748;50.844;4.396;2023-09-12T08:44:31;27.73;;;17.67;;
23159;SDS011;11748;50.844;4.396;2023-09-12T08:46:57;26.20;;;16.52;;
23159;SDS011;11748;50.844;4.396;2023-09-12T08:49:25;25.23;;;17.33;;
23159;SDS011;11748;50.844;4.396;2023-09-12T08:51:52;26.55;;;16.33;;
23159;SDS011;11748;50.844;4.396;2023-09-12T08:54:17;25.02;;;15.73;;
23159;SDS011;11748;50.844;4.396;2023-09-12T08:56:43;23.83;;;15.45;;
23159;SDS011;11748;50.844;4.396;2023-09-12T08:59:10;26.48;;;15.35;;
23159;SDS011;11748;50.844;4.396;2023-09-12T09:01:36;28.45;;;16.58;;
23159;SDS011;11748;50.844;4.396;2023-09-12T09:04:03;27.77;;;17.05;;
23159;SDS011;11748;50.844;4.396;2023-09-12T09:06:30;28.92;;;17.65;;
23159;SDS011;11748;50.844;4.396;2023-09-12T09:09:06;26.08;;;17.30;;
23159;SDS011;11748;50.844;4.396;2023-09-12T09:11:34;21.08;;;13.52;;
23159;SDS011;11748;50.844;4.396;2023-09-12T09:14:05;21.25;;;12.95;;
23159;SDS011;11748;50.844;4.396;2023-09-12T09:16:31;20.85;;;12.32;;
23159;SDS011;11748;50.844;4.396;2023-09-12T09:19:00;21.73;;;13.18;;
23159;SDS011;11748;50.844;4.396;2023-09-12T09:21:36;20.80;;;14.57;;
23159;SDS011;11748;50.844;4.396;2023-09-12T09:24:10;22.98;;;12.85;;
23159;SDS011;11748;50.844;4.396;2023-09-12T09:26:43;22.73;;;12.93;;
23159;SDS011;11748;50.844;4.396;2023-09-12T09:29:10;19.10;;;12.40;;
23159;SDS011;11748;50.844;4.396;2023-09-12T09:31:46;19.20;;;12.02;;
23159;SDS011;11748;50.844;4.396;2023-09-12T09:34:16;25.35;;;13.20;;
23159;SDS011;11748;50.844;4.396;2023-09-12T09:36:43;18.70;;;12.35;;
23159;SDS011;11748;50.844;4.396;2023-09-12T09:39:12;16.42;;;11.82;;
23159;SDS011;11748;50.844;4.396;2023-09-12T09:41:39;17.73;;;11.02;;
23159;SDS011;11748;50.844;4.396;2023-09-12T09:44:05;18.10;;;11.48;;
23159;SDS011;11748;50.844;4.396;2023-09-12T09:46:32;20.40;;;11.55;;
23159;SDS011;11748;50.844;4.396;2023-09-12T09:48:59;20.35;;;13.45;;
23159;SDS011;11748;50.844;4.396;2023-09-12T09:51:25;20.05;;;12.80;;
23159;SDS011;11748;50.844;4.396;2023-09-12T09:53:52;21.02;;;12.85;;
23159;SDS011;11748;50.844;4.396;2023-09-12T09:56:23;28.42;;;14.13;;
23159;SDS011;11748;50.844;4.396;2023-09-12T10:01:22;18.02;;;11.23;;
23159;SDS011;11748;50.844;4.396;2023-09-12T10:03:59;16.77;;;11.30;;
23159;SDS011;11748;50.844;4.396;2023-09-12T10:06:27;20.45;;;14.38;;
23159;SDS011;11748;50.844;4.396;2023-09-12T10:08:54;20.60;;;13.25;;
23159;SDS011;11748;50.844;4.396;2023-09-12T10:11:22;21.80;;;14.32;;
23159;SDS011;11748;50.844;4.396;2023-09-12T10:13:50;22.00;;;13.32;;
23159;SDS011;11748;50.844;4.396;2023-09-12T10:16:20;18.35;;;12.70;;
23159;SDS011;11748;50.844;4.396;2023-09-12T10:18:55;20.30;;;13.38;;
23159;SDS011;11748;50.844;4.396;2023-09-12T10:21:32;20.20;;;12.73;;
23159;SDS011;11748;50.844;4.396;2023-09-12T10:24:00;14.25;;;10.10;;
23159;SDS011;11748;50.844;4.396;2023-09-12T10:26:28;16.30;;;10.68;;
23159;SDS011;11748;50.844;4.396;2023-09-12T10:28:57;19.83;;;11.60;;
23159;SDS011;11748;50.844;4.396;2023-09-12T10:31:24;16.52;;;10.40;;
23159;SDS011;11748;50.844;4.396;2023-09-12T10:33:51;15.98;;;10.73;;
23159;SDS011;11748;50.844;4.396;2023-09-12T10:36:19;15.95;;;9.55;;
23159;SDS011;11748;50.844;4.396;2023-09-12T10:38:47;11.15;;;7.63;;
23159;SDS011;11748;50.844;4.396;2023-09-12T10:41:13;16.05;;;10.35;;
23159;SDS011;11748;50.844;4.396;2023-09-12T10:43:40;13.00;;;7.47;;
23159;SDS011;11748;50.844;4.396;2023-09-12T10:46:08;11.35;;;7.93;;
23159;SDS011;11748;50.844;4.396;2023-09-12T10:48:35;13.13;;;8.23;;
23159;SDS011;11748;50.844;4.396;2023-09-12T10:51:01;13.00;;;8.20;;
23159;SDS011;11748;50.844;4.396;2023-09-12T10:53:31;11.93;;;6.82;;
23159;SDS011;11748;50.844;4.396;2023-09-12T10:56:14;10.90;;;7.25;;
23159;SDS011;11748;50.844;4.396;2023-09-12T11:01:33;10.98;;;6.82;;
23159;SDS011;11748;50.844;4.396;2023-09-12T11:06:44;11.55;;;7.80;;
23159;SDS011;11748;50.844;4.396;2023-09-12T11:11:45;11.18;;;7.30;;
23159;SDS011;11748;50.844;4.396;2023-09-12T11:14:12;11.48;;;7.38;;
23159;SDS011;11748;50.844;4.396;2023-09-12T11:16:38;14.68;;;8.02;;
23159;SDS011;11748;50.844;4.396;2023-09-12T11:21:47;11.13;;;7.50;;
23159;SDS011;11748;50.844;4.396;2023-09-12T11:24:15;8.88;;;7.03;;
23159;SDS011;11748;50.844;4.396;2023-09-12T11:29:36;10.82;;;6.47;;
23159;SDS011;11748;50.844;4.396;2023-09-12T11:32:05;10.90;;;6.05;;
23159;SDS011;11748;50.844;4.396;2023-09-12T11:34:36;7.97;;;5.65;;
23159;SDS011;11748;50.844;4.396;2023-09-12T11:37:05;9.45;;;5.70;;
23159;SDS011;11748;50.844;4.396;2023-09-12T11:39:35;9.80;;;6.22;;
23159;SDS011;11748;50.844;4.396;2023-09-12T11:42:09;8.88;;;4.90;;
23159;SDS011;11748;50.844;4.396;2023-09-12T11:44:44;7.85;;;4.85;;
23159;SDS011;11748;50.844;4.396;2023-09-12T11:47:12;8.98;;;4.43;;
23159;SDS011;11748;50.844;4.396;2023-09-12T11:49:55;7.55;;;4.95;;
23159;SDS011;11748;50.844;4.396;2023-09-12T11:52:27;11.82;;;5.15;;
23159;SDS011;11748;50.844;4.396;2023-09-12T11:54:53;6.50;;;4.60;;
23159;SDS011;11748;50.844;4.396;2023-09-12T11:57:26;7.18;;;4.38;;
23159;SDS011;11748;50.844;4.396;2023-09-12T11:59:54;8.65;;;4.72;;
23159;SDS011;11748;50.844;4.396;2023-09-12T12:02:21;6.90;;;4.38;;
23159;SDS011;11748;50.844;4.396;2023-09-12T12:04:49;8.63;;;4.50;;
23159;SDS011;11748;50.844;4.396;2023-09-12T12:07:18;7.65;;;4.35;;
23159;SDS011;11748;50.844;4.396;2023-09-12T12:09:50;7.30;;;4.82;;
23159;SDS011;11748;50.844;4.396;2023-09-12T12:12:17;7.28;;;4.80;;
23159;SDS011;11748;50.844;4.396;2023-09-12T12:14:44;5.65;;;4.38;;
23159;SDS011;11748;50.844;4.396;2023-09-12T12:17:11;7.38;;;4.25;;
23159;SDS011;11748;50.844;4.396;2023-09-12T12:19:38;8.15;;;4.75;;
23159;SDS011;11748;50.844;4.396;2023-09-12T12:22:07;7.32;;;4.10;;
23159;SDS011;11748;50.844;4.396;2023-09-12T12:24:41;8.88;;;5.00;;
23159;SDS011;11748;50.844;4.396;2023-09-12T12:27:10;8.27;;;5.07;;
23159;SDS011;11748;50.844;4.396;2023-09-12T12:29:36;6.88;;;4.80;;
23159;SDS011;11748;50.844;4.396;2023-09-12T12:32:07;5.63;;;4.50;;
23159;SDS011;11748;50.844;4.396;2023-09-12T12:34:35;7.88;;;4.80;;
23159;SDS011;11748;50.844;4.396;2023-09-12T12:37:01;6.53;;;5.07;;
23159;SDS011;11748;50.844;4.396;2023-09-12T12:39:27;8.55;;;5.28;;
23159;SDS011;11748;50.844;4.396;2023-09-12T12:41:53;8.32;;;5.00;;
23159;SDS011;11748;50.844;4.396;2023-09-12T12:44:19;9.73;;;4.90;;
23159;SDS011;11748;50.844;4.396;2023-09-12T12:46:50;9.05;;;4.68;;
23159;SDS011;11748;50.844;4.396;2023-09-12T12:49:17;10.70;;;4.80;;
23159;SDS011;11748;50.844;4.396;2023-09-12T12:51:44;10.00;;;4.75;;
23159;SDS011;11748;50.844;4.396;2023-09-12T12:54:11;7.72;;;3.80;;
23159;SDS011;11748;50.844;4.396;2023-09-12T12:56:38;8.15;;;3.92;;
23159;SDS011;11748;50.844;4.396;2023-09-12T12:59:05;6.90;;;3.90;;
23159;SDS011;11748;50.844;4.396;2023-09-12T13:01:38;8.48;;;4.57;;
23159;SDS011;11748;50.844;4.396;2023-09-12T13:04:05;7.53;;;4.15;;
23159;SDS011;11748;50.844;4.396;2023-09-12T13:06:32;5.70;;;4.05;;
23159;SDS011;11748;50.844;4.396;2023-09-12T13:09:01;7.35;;;4.60;;
23159;SDS011;11748;50.844;4.396;2023-09-12T13:11:30;5.68;;;4.97;;
23159;SDS011;11748;50.844;4.396;2023-09-12T13:13:59;7.90;;;4.72;;
23159;SDS011;11748;50.844;4.396;2023-09-12T13:16:26;8.30;;;4.38;;
23159;SDS011;11748;50.844;4.396;2023-09-12T13:18:53;7.10;;;4.80;;
23159;SDS011;11748;50.844;4.396;2023-09-12T13:21:19;7.10;;;4.95;;
23159;SDS011;11748;50.844;4.396;2023-09-12T13:23:44;6.05;;;4.78;;
23159;SDS011;11748;50.844;4.396;2023-09-12T13:26:11;8.27;;;5.90;;
23159;SDS011;11748;50.844;4.396;2023-09-12T13:28:37;7.43;;;5.15;;
23159;SDS011;11748;50.844;4.396;2023-09-12T13:31:03;7.45;;;5.05;;
23159;SDS011;11748;50.844;4.396;2023-09-12T13:33:31;11.40;;;5.82;;
23159;SDS011;11748;50.844;4.396;2023-09-12T13:35:57;7.35;;;5.35;;
23159;SDS011;11748;50.844;4.396;2023-09-12T13:38:23;10.02;;;5.68;;
23159;SDS011;11748;50.844;4.396;2023-09-12T13:40:49;9.38;;;6.03;;
23159;SDS011;11748;50.844;4.396;2023-09-12T13:43:15;6.55;;;5.60;;
23159;SDS011;11748;50.844;4.396;2023-09-12T13:45:40;9.73;;;5.97;;
23159;SDS011;11748;50.844;4.396;2023-09-12T13:48:06;7.72;;;5.50;;
23159;SDS011;11748;50.844;4.396;2023-09-12T13:50:33;7.05;;;5.03;;
23159;SDS011;11748;50.844;4.396;2023-09-12T13:53:01;9.93;;;5.43;;
23159;SDS011;11748;50.844;4.396;2023-09-12T13:55:32;10.60;;;6.05;;
23159;SDS011;11748;50.844;4.396;2023-09-12T13:58:03;9.98;;;6.28;;
23159;SDS011;11748;50.844;4.396;2023-09-12T14:00:31;8.25;;;5.20;;
23159;SDS011;11748;50.844;4.396;2023-09-12T14:02:58;9.55;;;6.55;;
23159;SDS011;11748;50.844;4.396;2023-09-12T14:05:23;8.40;;;6.38;;
23159;SDS011;11748;50.844;4.396;2023-09-12T14:07:50;10.50;;;6.50;;
23159;SDS011;11748;50.844;4.396;2023-09-12T14:10:16;10.60;;;7.25;;
23159;SDS011;11748;50.844;4.396;2023-09-12T14:12:42;9.52;;;7.20;;
23159;SDS011;11748;50.844;4.396;2023-09-12T14:15:09;10.35;;;7.47;;
23159;SDS011;11748;50.844;4.396;2023-09-12T14:17:36;10.48;;;7.07;;
23159;SDS011;11748;50.844;4.396;2023-09-12T14:20:02;11.00;;;7.50;;
23159;SDS011;11748;50.844;4.396;2023-09-12T14:22:28;10.98;;;7.88;;
23159;SDS011;11748;50.844;4.396;2023-09-12T14:24:54;10.32;;;7.75;;
23159;SDS011;11748;50.844;4.396;2023-09-12T14:27:20;10.32;;;7.72;;
23159;SDS011;11748;50.844;4.396;2023-09-12T14:29:46;10.43;;;8.07;;
23159;SDS011;11748;50.844;4.396;2023-09-12T14:32:15;10.70;;;8.30;;
23159;SDS011;11748;50.844;4.396;2023-09-12T14:34:40;12.45;;;7.97;;
23159;SDS011;11748;50.844;4.396;2023-09-12T14:37:06;9.13;;;7.57;;
23159;SDS011;11748;50.844;4.396;2023-09-12T14:39:33;12.63;;;7.65;;
23159;SDS011;11748;50.844;4.396;2023-09-12T14:41:58;9.35;;;7.32;;
23159;SDS011;11748;50.844;4.396;2023-09-12T14:44:27;9.75;;;7.13;;
23159;SDS011;11748;50.844;4.396;2023-09-12T14:46:58;9.93;;;7.47;;
23159;SDS011;11748;50.844;4.396;2023-09-12T14:49:24;9.80;;;7.30;;
23159;SDS011;11748;50.844;4.396;2023-09-12T14:51:50;9.30;;;6.20;;
23159;SDS011;11748;50.844;4.396;2023-09-12T14:54:16;10.23;;;6.85;;